.
WxDataArchive / Data Records for 2009-10-26
2009-10-25 October 2009 2009-10-27

Data Records for Monday, 26 October 2009

Time	Temp	Chill	HIndex	Humid	Dewpt	 Wind 	HiWind	WindDir	Rain 	Barom 
-----	----	-----	------	-----	-----	------	------	-------	-----	----- 
00:00	42.9	42.9	42.9	81	37.5	0	0	---	0.00	30.147 
00:05	42.6	42.6	42.6	82	37.5	0	0	---	0.00	30.147 
00:10	42.3	42.3	42.3	82	37.2	0	0	---	0.00	30.147 
00:15	42.2	42.2	42.2	82	37.1	0	0	---	0.00	30.148 
00:20	42.1	42.1	42.1	83	37.3	0	0	---	0.00	30.148 
00:25	41.9	41.9	41.9	84	37.4	0	0	---	0.00	30.148 
00:30	41.9	41.9	41.9	84	37.4	0	0	---	0.00	30.152 
00:35	41.8	41.8	41.8	84	37.3	0	0	---	0.00	30.152 
00:40	41.6	41.6	41.6	84	37.1	0	0	---	0.00	30.152 
00:45	41.3	41.3	41.3	85	37.1	0	0	---	0.00	30.151 
00:50	41.2	41.2	41.2	85	37.0	0	0	---	0.00	30.151 
00:55	41.1	41.1	41.1	85	36.9	0	0	---	0.00	30.151 
01:00	40.9	40.9	40.9	85	36.7	0	0	---	0.00	30.150 
01:05	40.8	40.8	40.8	86	36.9	0	0	---	0.00	30.150 
01:10	40.6	40.6	40.6	86	36.7	0	0	---	0.00	30.150 
01:15	40.3	40.3	40.3	87	36.7	0	0	---	0.00	30.147 
01:20	40.2	40.2	40.2	87	36.6	0	0	---	0.00	30.147 
01:25	40.1	40.1	40.1	87	36.5	0	0	---	0.00	30.147 
01:30	39.9	39.9	39.9	88	36.6	0	0	---	0.00	30.137 
01:35	39.8	39.8	39.8	88	36.5	0	0	---	0.00	30.137 
01:40	39.8	39.8	39.8	88	36.5	0	0	---	0.00	30.137 
01:45	39.8	39.8	39.8	88	36.5	0	0	---	0.00	30.140 
01:50	39.8	39.8	39.8	88	36.5	0	0	---	0.00	30.140 
01:55	39.8	39.8	39.8	88	36.5	0	0	---	0.00	30.140 
02:00	39.8	39.8	39.8	88	36.5	0	0	---	0.00	30.142 
02:05	39.8	39.8	39.8	88	36.5	0	0	---	0.00	30.142 
02:10	39.8	39.8	39.8	88	36.5	0	0	---	0.00	30.142 
02:15	39.6	39.6	39.6	88	36.3	0	0	---	0.00	30.138 
02:20	39.5	39.5	39.5	88	36.2	0	0	---	0.00	30.138 
02:25	39.5	39.5	39.5	88	36.2	0	0	---	0.00	30.138 
02:30	39.3	39.3	39.3	88	36.0	0	0	---	0.00	30.146 
02:35	39.2	39.2	39.2	88	35.9	0	0	---	0.00	30.146 
02:40	39.1	39.1	39.1	89	36.1	0	0	---	0.00	30.146 
02:45	39.1	39.1	39.1	89	36.1	0	0	---	0.00	30.154 
02:50	38.9	38.9	38.9	89	35.9	0	0	---	0.00	30.154 
02:55	38.9	38.9	38.9	89	35.9	0	0	---	0.00	30.154 
03:00	38.8	38.8	38.8	89	35.8	0	0	---	0.00	30.150 
03:05	38.8	38.8	38.8	90	36.1	0	0	---	0.00	30.150 
03:10	38.6	38.6	38.6	90	35.9	0	0	---	0.00	30.150 
03:15	38.5	38.5	38.5	90	35.8	0	0	---	0.00	30.149 
03:20	38.5	38.5	38.5	90	35.8	0	0	---	0.00	30.149 
03:25	38.3	38.3	38.3	90	35.6	0	0	---	0.00	30.149 
03:30	38.3	38.3	38.3	91	35.9	0	0	---	0.00	30.153 
03:35	38.2	38.2	38.2	91	35.8	0	0	---	0.00	30.153 
03:40	38.0	38.0	38.0	91	35.6	0	0	---	0.00	30.153 
03:45	38.0	38.0	38.0	91	35.6	0	0	---	0.00	30.150 
03:50	37.9	37.9	37.9	91	35.5	0	0	---	0.00	30.150 
03:55	37.9	37.9	37.9	91	35.5	0	0	---	0.00	30.150 
04:00	37.9	37.9	37.9	92	35.8	0	0	---	0.00	30.138 
04:05	37.9	37.9	37.9	92	35.8	0	0	---	0.00	30.138 
04:10	37.8	37.8	37.8	92	35.7	0	0	---	0.00	30.138 
04:15	37.8	37.8	37.8	92	35.7	0	0	---	0.00	30.144 
04:20	37.8	37.8	37.8	92	35.7	0	0	---	0.00	30.144 
04:25	37.8	37.8	37.8	92	35.7	0	0	---	0.00	30.144 
04:30	37.6	37.6	37.6	92	35.5	0	0	---	0.00	30.144 
04:35	37.5	37.5	37.5	92	35.4	0	0	---	0.00	30.144 
04:40	37.3	37.3	37.3	92	35.2	0	0	---	0.00	30.144 
04:45	37.3	37.3	37.3	92	35.2	0	0	---	0.00	30.142 
04:50	37.2	37.2	37.2	92	35.1	0	0	---	0.00	30.142 
04:55	37.2	37.2	37.2	92	35.1	0	0	---	0.00	30.142 
05:00	37.2	37.2	37.2	92	35.1	0	0	---	0.00	30.138 
05:05	37.3	37.3	37.3	92	35.2	0	0	---	0.00	30.138 
05:10	37.3	37.3	37.3	93	35.5	0	0	---	0.00	30.138 
05:15	37.5	37.5	37.5	93	35.7	0	0	---	0.00	30.146 
05:20	37.6	37.6	37.6	93	35.8	0	0	---	0.00	30.146 
05:25	37.6	37.6	37.6	93	35.8	0	0	---	0.00	30.146 
05:30	37.8	37.8	37.8	93	36.0	0	0	---	0.00	30.150 
05:35	38.0	38.0	38.0	93	36.2	0	0	---	0.00	30.150 
05:40	38.3	38.3	38.3	93	36.5	0	0	---	0.00	30.150 
05:45	38.5	38.5	38.5	93	36.7	0	0	---	0.00	30.145 
05:50	38.8	38.8	38.8	93	37.0	0	0	---	0.00	30.145 
05:55	38.9	38.9	38.9	93	37.1	0	0	---	0.00	30.145 
06:00	39.1	39.1	39.1	93	37.2	0	0	---	0.00	30.147 
06:05	39.1	39.1	39.1	93	37.2	0	0	---	0.00	30.147 
06:10	39.2	39.2	39.2	93	37.3	0	0	---	0.00	30.147 
06:15	39.5	39.5	39.5	93	37.6	0	0	---	0.00	30.152 
06:20	39.6	39.6	39.6	93	37.7	0	0	---	0.00	30.152 
06:25	39.6	39.6	39.6	93	37.7	0	0	---	0.00	30.152 
06:30	39.8	39.8	39.8	93	37.9	0	0	---	0.00	30.150 
06:35	39.9	39.9	39.9	93	38.0	0	0	---	0.00	30.150 
06:40	39.9	39.9	39.9	93	38.0	0	0	---	0.00	30.150 
06:45	39.9	39.9	39.9	92	37.8	0	0	---	0.00	30.152 
06:50	39.8	39.8	39.8	92	37.7	0	0	---	0.00	30.152 
06:55	39.8	39.8	39.8	91	37.4	0	0	---	0.00	30.152 
07:00	39.8	39.8	39.8	91	37.4	0	0	---	0.00	30.163 
07:05	39.9	39.9	39.9	91	37.5	0	0	---	0.00	30.163 
07:10	40.1	40.1	40.1	91	37.7	0	0	---	0.00	30.163 
07:15	40.3	40.3	40.3	90	37.6	0	0	---	0.00	30.164 
07:20	40.8	40.8	40.8	89	37.8	0	0	---	0.00	30.164 
07:25	40.9	40.9	40.9	89	37.9	0	0	---	0.00	30.164 
07:30	41.1	41.1	41.1	89	38.1	0	0	---	0.00	30.169 
07:35	41.1	41.1	41.1	89	38.1	0	0	---	0.00	30.169 
07:40	41.2	41.2	41.2	88	37.9	0	0	---	0.00	30.169 
07:45	41.3	41.3	41.3	88	38.0	0	0	---	0.00	30.171 
07:50	41.3	41.3	41.3	88	38.0	0	0	---	0.00	30.171 
07:55	41.5	41.5	41.5	88	38.2	0	0	---	0.00	30.171 
08:00	41.6	41.6	41.6	88	38.3	0	0	---	0.00	30.167 
08:05	41.8	41.8	41.8	87	38.2	0	0	---	0.00	30.167 
08:10	42.1	42.1	42.1	87	38.5	0	1	112	0.00	30.167 
08:15	42.2	42.2	42.2	86	38.3	0	0	---	0.00	30.163 
08:20	42.3	42.3	42.3	86	38.4	0	0	---	0.00	30.163 
08:25	42.6	42.6	42.6	85	38.4	0	1	112	0.00	30.163 
08:30	42.9	42.9	42.9	84	38.4	0	1	112	0.00	30.170 
08:35	43.1	43.1	43.1	84	38.6	0	0	---	0.00	30.170 
08:40	43.2	43.2	43.2	83	38.4	0	1	112	0.00	30.170 
08:45	43.3	43.3	43.3	83	38.5	0	0	---	0.00	30.172 
08:50	43.3	43.3	43.3	83	38.5	0	1	112	0.00	30.172 
08:55	43.5	43.5	43.5	83	38.7	0	1	112	0.00	30.172 
09:00	43.6	43.6	43.6	83	38.8	0	0	---	0.00	30.178 
09:05	43.8	43.8	43.8	82	38.7	0	0	---	0.00	30.178 
09:10	43.9	43.9	43.9	83	39.1	0	0	---	0.00	30.178 
09:15	44.2	44.2	44.2	83	39.4	0	1	112	0.00	30.178 
09:20	44.3	44.3	44.3	82	39.2	0	0	---	0.00	30.178 
09:25	44.6	44.6	44.6	82	39.4	0	1	112	0.00	30.178 
09:30	44.9	44.9	44.9	82	39.7	0	1	112	0.00	30.173 
09:35	45.2	45.2	45.2	81	39.7	0	1	112	0.00	30.173 
09:40	45.4	45.4	45.4	81	39.9	0	1	112	0.00	30.173 
09:45	45.5	45.5	45.5	81	40.0	0	1	112	0.00	30.174 
09:50	45.7	45.7	45.7	81	40.2	0	0	---	0.00	30.174 
09:55	46.0	46.0	46.0	81	40.5	0	0	---	0.00	30.174 
10:00	46.1	46.1	46.1	80	40.3	0	0	---	0.00	30.179 
10:05	46.4	46.4	46.4	80	40.6	0	0	---	0.00	30.179 
10:10	46.7	46.7	46.7	80	40.9	0	0	---	0.00	30.179 
10:15	47.1	47.1	47.1	79	40.9	0	1	112	0.00	30.175 
10:20	47.6	47.6	47.6	77	40.8	0	1	180	0.00	30.175 
10:25	47.9	47.9	47.9	76	40.7	0	1	158	0.00	30.175 
10:30	48.3	48.3	48.3	74	40.4	0	2	158	0.00	30.177 
10:35	48.8	48.8	48.8	74	40.9	0	1	158	0.00	30.177 
10:40	49.2	49.2	49.2	73	40.9	0	1	158	0.00	30.177 
10:45	49.9	49.9	49.9	71	40.9	0	1	158	0.00	30.169 
10:50	50.8	50.8	50.8	69	41.0	0	3	112	0.00	30.169 
10:55	51.4	51.4	51.4	68	41.2	0	2	112	0.00	30.169 
11:00	51.7	51.7	51.7	67	41.1	0	1	135	0.00	30.171 
11:05	51.9	51.9	51.9	66	40.9	0	1	135	0.00	30.171 
11:10	52.0	52.0	52.0	67	41.4	0	0	---	0.00	30.171 
11:15	52.2	52.2	52.2	66	41.2	0	0	---	0.00	30.183 
11:20	52.2	52.2	52.2	65	40.8	0	1	135	0.00	30.183 
11:25	52.6	52.6	52.6	65	41.2	0	1	135	0.00	30.183 
11:30	53.6	53.6	53.6	63	41.3	0	2	135	0.00	30.164 
11:35	55.0	55.0	55.0	58	40.5	1	5	112	0.00	30.164 
11:40	56.2	56.2	56.2	57	41.2	0	2	90	0.00	30.164 
11:45	57.2	57.2	57.2	54	40.7	1	3	90	0.00	30.148 
11:50	58.1	58.1	58.1	53	41.1	1	3	112	0.00	30.148 
11:55	58.9	58.9	58.9	50	40.3	1	3	90	0.00	30.148 
12:00	59.5	59.5	59.5	50	40.8	1	3	292	0.00	30.148 
12:05	59.9	59.9	59.9	47	39.6	1	4	248	0.00	30.148 
12:10	60.2	60.2	60.2	46	39.3	1	3	270	0.00	30.148 
12:15	60.4	60.4	60.4	45	39.0	1	4	90	0.00	30.144 
12:20	60.5	60.5	60.5	46	39.6	1	4	248	0.00	30.144 
12:25	60.7	60.7	60.7	46	39.8	1	4	248	0.00	30.144 
12:30	61.0	61.0	61.0	43	38.3	1	4	90	0.00	30.133 
12:35	61.3	61.3	61.3	44	39.2	1	2	45	0.00	30.133 
12:40	61.3	61.3	61.3	45	39.8	1	3	0	0.00	30.133 
12:45	61.5	61.5	61.5	45	40.0	1	4	292	0.00	30.119 
12:50	62.0	62.0	62.0	43	39.2	1	5	338	0.00	30.119 
12:55	62.3	62.3	62.3	44	40.1	1	3	112	0.00	30.119 
13:00	62.6	62.6	62.6	43	39.8	1	3	112	0.00	30.110 
13:05	62.7	62.7	62.7	41	38.7	1	5	270	0.00	30.110 
13:10	62.7	62.7	62.7	42	39.3	2	5	90	0.00	30.110 
13:15	62.9	62.9	62.9	42	39.5	0	3	90	0.00	30.105 
13:20	63.1	63.1	63.1	42	39.6	1	4	68	0.00	30.105 
13:25	62.9	62.9	62.9	40	38.2	2	5	112	0.00	30.105 
13:30	62.9	62.9	62.9	39	37.6	1	7	90	0.00	30.093 
13:35	63.1	63.1	63.1	41	39.0	1	4	90	0.00	30.093 
13:40	63.2	63.2	63.2	41	39.1	1	3	45	0.00	30.093 
13:45	63.2	63.2	63.2	39	37.8	1	9	135	0.00	30.085 
13:50	63.2	63.2	63.2	42	39.7	1	3	315	0.00	30.085 
13:55	63.4	63.4	63.4	43	40.5	0	2	0	0.00	30.085 
14:00	63.4	63.4	63.4	39	38.0	1	6	292	0.00	30.077 
14:05	63.4	63.4	63.4	41	39.3	1	4	90	0.00	30.077 
14:10	63.5	63.5	63.5	39	38.1	1	3	135	0.00	30.077 
14:15	63.5	63.5	63.5	39	38.1	1	3	90	0.00	30.073 
14:20	63.4	63.4	63.4	39	38.0	2	6	112	0.00	30.073 
14:25	63.4	63.4	63.4	39	38.0	2	5	112	0.00	30.073 
14:30	63.4	63.4	63.4	40	38.7	1	4	112	0.00	30.067 
14:35	63.4	63.4	63.4	40	38.7	1	4	112	0.00	30.067 
14:40	63.7	63.7	63.7	40	38.9	1	3	225	0.00	30.067 
14:45	63.9	63.9	63.9	40	39.1	0	2	225	0.00	30.060 
14:50	64.2	64.2	64.2	39	38.7	1	2	248	0.00	30.060 
14:55	64.2	64.2	64.2	35	36.0	1	4	292	0.00	30.060 
15:00	64.3	64.3	64.3	39	38.8	1	2	90	0.00	30.053 
15:05	64.3	64.3	64.3	38	38.1	1	3	90	0.00	30.053 
15:10	64.3	64.3	64.3	39	38.8	1	4	112	0.00	30.053 
15:15	64.5	64.5	64.5	36	36.9	1	3	270	0.00	30.052 
15:20	64.5	64.5	64.5	35	36.2	1	5	90	0.00	30.052 
15:25	64.5	64.5	64.5	36	36.9	0	1	90	0.00	30.052 
15:30	64.7	64.7	64.7	36	37.1	1	3	112	0.00	30.052 
15:35	64.8	64.8	64.8	34	35.8	1	4	90	0.00	30.052 
15:40	65.0	65.0	65.0	35	36.7	0	2	248	0.00	30.052 
15:45	65.0	65.0	65.0	35	36.7	1	3	135	0.00	30.051 
15:50	65.0	65.0	65.0	33	35.2	1	3	112	0.00	30.051 
15:55	65.0	65.0	65.0	34	35.9	1	3	248	0.00	30.051 
16:00	65.0	65.0	65.0	34	35.9	0	1	248	0.00	30.045 
16:05	65.0	65.0	65.0	35	36.7	1	3	90	0.00	30.045 
16:10	65.0	65.0	65.0	34	35.9	1	5	90	0.00	30.045 
16:15	65.0	65.0	65.0	32	34.4	1	5	112	0.00	30.041 
16:20	64.8	64.8	64.8	32	34.2	1	3	112	0.00	30.041 
16:25	64.8	64.8	64.8	33	35.0	1	4	90	0.00	30.041 
16:30	64.8	64.8	64.8	31	33.5	2	4	90	0.00	30.044 
16:35	64.8	64.8	64.8	38	38.6	0	2	180	0.00	30.044 
16:40	64.7	64.7	64.7	35	36.4	0	3	248	0.00	30.044 
16:45	64.5	64.5	64.5	32	34.0	2	5	90	0.00	30.038 
16:50	64.5	64.5	64.5	32	34.0	1	3	135	0.00	30.038 
16:55	64.5	64.5	64.5	32	34.0	1	5	90	0.00	30.038 
17:00	64.7	64.7	64.7	32	34.2	1	4	90	0.00	30.037 
17:05	64.7	64.7	64.7	35	36.4	0	2	68	0.00	30.037 
17:10	64.5	64.5	64.5	34	35.5	0	4	68	0.00	30.037 
17:15	64.3	64.3	64.3	34	35.3	0	3	68	0.00	30.036 
17:20	64.2	64.2	64.2	35	36.0	0	3	68	0.00	30.036 
17:25	63.9	63.9	63.9	34	35.0	1	3	135	0.00	30.036 
17:30	64.0	64.0	64.0	35	35.8	0	4	112	0.00	30.025 
17:35	64.0	64.0	64.0	34	35.1	0	4	112	0.00	30.025 
17:40	64.0	64.0	64.0	36	36.5	1	2	112	0.00	30.025 
17:45	64.0	64.0	64.0	36	36.5	1	3	112	0.00	30.022 
17:50	63.9	63.9	63.9	36	36.4	0	1	112	0.00	30.022 
17:55	63.7	63.7	63.7	37	36.9	0	2	112	0.00	30.022 
18:00	63.5	63.5	63.5	38	37.4	0	1	112	0.00	30.022 
18:05	63.4	63.4	63.4	38	37.3	0	0	---	0.00	30.022 
18:10	63.1	63.1	63.1	38	37.1	0	1	112	0.00	30.022 
18:15	62.9	62.9	62.9	39	37.6	0	1	112	0.00	30.023 
18:20	62.6	62.6	62.6	39	37.3	0	1	112	0.00	30.023 
18:25	62.4	62.4	62.4	39	37.1	0	1	112	0.00	30.023 
18:30	62.1	62.1	62.1	39	36.8	0	1	112	0.00	30.022 
18:35	62.0	62.0	62.0	40	37.4	0	1	112	0.00	30.022 
18:40	61.6	61.6	61.6	41	37.7	0	1	112	0.00	30.022 
18:45	61.3	61.3	61.3	41	37.4	0	0	---	0.00	30.024 
18:50	60.9	60.9	60.9	43	38.3	0	0	---	0.00	30.024 
18:55	60.4	60.4	60.4	46	39.5	0	0	---	0.00	30.024 
19:00	59.5	59.5	59.5	48	39.8	0	1	112	0.00	30.021 
19:05	58.9	58.9	58.9	49	39.8	0	0	---	0.00	30.021 
19:10	58.3	58.3	58.3	48	38.7	0	1	112	0.00	30.021 
19:15	58.0	58.0	58.0	49	38.9	0	0	---	0.00	30.022 
19:20	57.5	57.5	57.5	51	39.5	0	0	---	0.00	30.022 
19:25	57.0	57.0	57.0	51	39.1	0	0	---	0.00	30.022 
19:30	56.6	56.6	56.6	51	38.7	0	0	---	0.00	30.027 
19:35	56.2	56.2	56.2	53	39.3	0	0	---	0.00	30.027 
19:40	55.7	55.7	55.7	53	38.8	0	0	---	0.00	30.027 
19:45	55.3	55.3	55.3	54	38.9	0	0	---	0.00	30.030 
19:50	54.8	54.8	54.8	54	38.5	0	0	---	0.00	30.030 
19:55	54.5	54.5	54.5	55	38.7	0	0	---	0.00	30.030 
20:00	54.4	54.4	54.4	56	39.0	0	0	---	0.00	30.039 
20:05	54.2	54.2	54.2	55	38.4	0	0	---	0.00	30.039 
20:10	54.2	54.2	54.2	54	37.9	0	0	---	0.00	30.039 
20:15	54.1	54.1	54.1	54	37.8	0	0	---	0.00	30.038 
20:20	54.1	54.1	54.1	54	37.8	0	0	---	0.00	30.038 
20:25	54.2	54.2	54.2	52	37.0	0	0	---	0.00	30.038 
20:30	54.4	54.4	54.4	53	37.6	0	0	---	0.00	30.037 
20:35	54.5	54.5	54.5	52	37.2	0	0	---	0.00	30.037 
20:40	54.8	54.8	54.8	53	38.0	0	0	---	0.00	30.037 
20:45	54.8	54.8	54.8	52	37.5	0	0	---	0.00	30.031 
20:50	54.7	54.7	54.7	53	37.9	0	0	---	0.00	30.031 
20:55	54.5	54.5	54.5	52	37.2	0	0	---	0.00	30.031 
21:00	54.5	54.5	54.5	53	37.7	0	0	---	0.00	30.027 
21:05	54.4	54.4	54.4	53	37.6	0	0	---	0.00	30.027 
21:10	54.2	54.2	54.2	53	37.4	0	0	---	0.00	30.027 
21:15	54.2	54.2	54.2	53	37.4	0	0	---	0.00	30.027 
21:20	54.2	54.2	54.2	54	37.9	0	0	---	0.00	30.027 
21:25	54.2	54.2	54.2	53	37.4	0	0	---	0.00	30.027 
21:30	54.2	54.2	54.2	54	37.9	0	0	---	0.00	30.025 
21:35	54.4	54.4	54.4	54	38.1	0	0	---	0.00	30.025 
21:40	54.4	54.4	54.4	54	38.1	0	0	---	0.00	30.025 
21:45	54.5	54.5	54.5	54	38.2	0	0	---	0.00	30.020 
21:50	54.5	54.5	54.5	53	37.7	0	0	---	0.00	30.020 
21:55	54.4	54.4	54.4	54	38.1	0	0	---	0.00	30.020 
22:00	54.4	54.4	54.4	54	38.1	0	0	---	0.00	30.018 
22:05	54.1	54.1	54.1	54	37.8	0	0	---	0.00	30.018 
22:10	53.9	53.9	53.9	54	37.6	0	0	---	0.00	30.018 
22:15	53.6	53.6	53.6	55	37.8	0	0	---	0.00	30.002 
22:20	53.3	53.3	53.3	55	37.5	0	0	---	0.00	30.002 
22:25	53.2	53.2	53.2	55	37.5	0	0	---	0.00	30.002 
22:30	52.9	52.9	52.9	56	37.6	0	0	---	0.00	30.004 
22:35	52.9	52.9	52.9	57	38.1	0	0	---	0.00	30.004 
22:40	52.8	52.8	52.8	56	37.5	0	0	---	0.00	30.004 
22:45	52.8	52.8	52.8	57	38.0	0	0	---	0.00	30.006 
22:50	52.6	52.6	52.6	57	37.8	0	0	---	0.00	30.006 
22:55	52.6	52.6	52.6	57	37.8	0	0	---	0.00	30.006 
23:00	52.5	52.5	52.5	58	38.2	0	0	---	0.00	30.013 
23:05	52.3	52.3	52.3	58	38.0	0	0	---	0.00	30.013 
23:10	52.3	52.3	52.3	58	38.0	0	0	---	0.00	30.013 
23:15	52.3	52.3	52.3	58	38.0	0	0	---	0.00	30.006 
23:20	52.5	52.5	52.5	58	38.2	0	1	112	0.00	30.006 
23:25	52.6	52.6	52.6	58	38.2	0	1	112	0.00	30.006 
23:30	52.8	52.8	52.8	58	38.4	0	1	112	0.00	30.010 
23:35	52.9	52.9	52.9	57	38.1	0	1	112	0.00	30.010 
23:40	53.3	53.3	53.3	56	38.0	1	7	248	0.00	30.010 
23:45	53.6	53.6	53.6	55	37.8	0	2	248	0.00	30.012 
23:50	53.8	53.8	53.8	55	38.0	0	1	248	0.00	30.012 
23:55	53.6	53.6	53.6	55	37.8	0	1	248	0.00	30.012 

CoCoRaHS
IN-AL-39
A2 Web Hosting
Creative Commons License
GoDaddy
search engine by freefind advanced

loaded 2018-11-15 16:01:21 • last modified 2010-11-18 10:43:29
Privacy PolicyDisclaimer
• wx.awcolley.com is powered by PmWiki v.2002016 •
• all content (unless otherwise noted) © 2018 A W Colley